Indianapolis International Airport
KIND : now visible

Airfield :











YOU CAN JOIN US ON...

 
LOGIN :

Register | Disclaimer

   EN    FR    IT 

 









Legend :    VFR   Marginal VFR   IFR   Intensive IFR   Very Intensive IFR
Visi :
Ceiling :
>= 8 km
>= 3000ft
5 to 8 km
1000 to 3000 ft
1500m to 5 km
500 to 1000 ft
800 to 1500m
200 to 500 ft
< 800m
< 200 ft
Symbols :   Thunderstorms  Fog  Heavy snow  Heavy precipitations  Wind > 20 kt






- Airport Elevation : 797 ft
- IATA code : IND


KIND - Indianapolis International

CURRENT METAR :
  • 262354Z 01003KT 6SM -RA BR SCT075 OVC090 07/06 A3024 RMK AO2 SLP245 P0003 60013 T00720056 10106 20072 51015

EXPIRED METARs :
  • 262254Z 35004KT 6SM -RA BR FEW024 BKN070 OVC100 07/06 A3024 RMK AO2 SLP243 P0002 T00720056
  • 262154Z 34006KT 7SM -RA FEW024 OVC065 07/06 A3022 RMK AO2 SLP235 P0005 T00720056

TAF KIND
Valid from the 27 at 00:00 until the 28 at 06:00 UTC


262322Z 2700/2806 36005KT 6SM -RA FEW025 BKN050
FM270300 01006KT P6SM VCSH OVC027
FM271100 02006KT P6SM VCSH OVC018
FM271400 03006KT P6SM VCSH OVC021
FM272200 35005KT P6SM BKN024
FM280000 VRB03KT P6SM BKN040
KZID FIR / North America



MET'MAP, your aeronautical weather chart ! - Copyright ORBIFLY December 2007 - Disclaimer

ORBIFLY MET'MAP TEAM :

Programming & Development : Alexandra Zaïnal
Concept & original design : Baudouin d'Aumeries
Assistance for programming : Marc-Olivier Méhu
Technical & hardware support : Manuel Goepfert

Contact : metmap@orbifly.com




SOURCES & CREDITS :

   NOAA       Earth
Advisory